Bovec, Slovenia

8:13 AM CEST on April 27, 2015 (GMT +0200)
ITOLMINT3 | | Change Station
CLOSE
Current Station
Personal Weather Station
Location: Zatolmin, TOLMIN
Elevation: 853 ft
Nearby Weather Stations

Elev 853 ft 46.19 °N, 13.73 °E | Updated 13 minutes ago

Light Rain
Light Rain
52.5 °F
Feels Like 52.5 °F
N
0.0
Wind Variable Wind from WNW
Gusts 1.0 mph

Today
High -- | Low -- °F
--% Chance of Precip.
Yesterday
High -- | Low -- °F
Precip. -- in
5:59 AM 8:08 PM
Waxing Gibbous, 62% visible
Pressure 29.77 in
Visibility 6.2 miles
Clouds Mostly Cloudy 2500 ft
Dew Point 51 °F
Humidity 96%
Rainfall 0.26 in
Snow Depth Not available.
UV 1 out of 12
Pollen Not available.
Air Quality Not available.
Flu Activity Not available.
METAR LIVO 270555Z 32004KT 9999 -RA BKN025 10/09 Q1008 RMK BKN VIS MIN 9999

More Conditions Fewer Conditions

Pressure 29.77 in
Visibility 6.2 miles
Clouds Mostly Cloudy 2500 ft
Dew Point 51 °F
Humidity 96%
Rainfall 0.26 in
Snow Depth Not available.
UV 1 out of 12
Pollen Not available.
Air Quality Not available.
Flu Activity Not available.
METAR LIVO 270555Z 32004KT 9999 -RA BKN025 10/09 Q1008 RMK BKN VIS MIN 9999

More Conditions Fewer Conditions

10-Day Weather Forecast

Almanac

Astronomy

Apr. 27, 2015 Rise Set
Actual Time
Civil Twilight
Nautical Twilight
Astronomical Twilight
Moon
Length of Visible Light
Length of Day
Tomorrow will be .
, % of the Moon is Illuminated

Today's Extremes

Country Highs Country Lows

Community

WunderPhotos

Upload Photos

1,817,272 photos uploaded!

WunderBlogs® & News

Nearby

Air Quality

  Air Quality AQ Index Pollutant
Not available.

Snow Depth

Station Depth Elevation

Earthquake Activity

City Distance Mag. Time & Date
Minimum magnitude displayed is 2.5.

Coastal Water Temperatures

Place Temperature

Stations

Nearby Weather Stations

Station Location Temp. Windchill Dew Point Humidity Wind Precip. Elev Updated Type